Time;durP1;ratioP1;P1;durP2;ratioP2;P2;SDS_P1;SDS_P2;PMS_P1;PMS_P2;Temp;Humidity;BMP_temperature;BMP_pressure;BME280_temperature;BME280_humidity;BME280_pressure;Samples;Min_cycle;Max_cycle;Signal;HPM_P1;HPM_P2
2023/03/17 00:01:37;;;;;;;5.25;3.10;;;;;;;2.80;83.54;98010.78;10364924;28;20124;-55
2023/03/17 00:06:36;;;;;;;3.20;2.47;;;;;;;2.74;83.82;98015.69;10363211;28;20136;-54
2023/03/17 00:11:35;;;;;;;3.88;2.92;;;;;;;2.62;84.11;98004.16;10363306;28;20151;-54
2023/03/17 00:16:38;;;;;;;2.63;2.40;;;;;;;2.85;83.47;98018.63;10364275;28;20107;-54
2023/03/17 00:21:37;;;;;;;3.03;2.28;;;;;;;2.80;83.82;98013.34;10363367;28;20833;-54
2023/03/17 00:26:36;;;;;;;2.63;2.05;;;;;;;2.75;84.14;98016.59;10362636;28;20561;-55
2023/03/17 00:31:37;;;;;;;3.90;2.55;;;;;;;2.80;82.89;98027.84;10366050;28;20485;-55
2023/03/17 00:36:36;;;;;;;4.07;2.60;;;;;;;2.84;83.51;98021.13;10365704;28;20492;-54
2023/03/17 00:41:35;;;;;;;7.13;3.75;;;;;;;2.76;82.81;98000.38;10364934;28;20475;-55
2023/03/17 00:46:36;;;;;;;10.43;5.97;;;;;;;2.94;82.20;98024.06;10365647;28;20152;-55
2023/03/17 00:51:36;;;;;;;4.50;2.80;;;;;;;3.06;82.10;98027.84;10364011;28;20152;-54
2023/03/17 00:56:36;;;;;;;4.55;3.13;;;;;;;3.10;81.24;98020.31;10364856;28;20060;-55
2023/03/17 01:01:35;;;;;;;5.13;3.22;;;;;;;2.87;81.28;97991.38;10364454;28;20052;-54
2023/03/17 01:06:34;;;;;;;2.53;2.05;;;;;;;2.91;81.61;98038.47;10364562;28;20060;-55
2023/03/17 01:11:33;;;;;;;3.95;2.58;;;;;;;2.98;81.70;98035.28;10361782;28;20037;-55
2023/03/17 01:16:32;;;;;;;;;;;;;;;2.97;81.26;98047.22;10362217;28;20110;-54
2023/03/17 01:21:31;;;;;;;3.90;2.63;;;;;;;3.03;80.81;98044.00;10363752;28;19928;-55
2023/03/17 01:26:30;;;;;;;4.63;3.17;;;;;;;3.14;80.59;98036.66;10361067;28;20080;-55
2023/03/17 01:31:30;;;;;;;5.65;3.10;;;;;;;3.13;80.35;98040.91;10364209;28;20176;-54
2023/03/17 01:36:29;;;;;;;11.85;7.60;;;;;;;3.18;81.29;98031.69;10362022;28;20555;-54
2023/03/17 01:41:35;;;;;;;18.20;12.80;;;;;;;3.26;82.90;98039.66;10361304;28;20518;-55
2023/03/17 01:46:35;;;;;;;24.35;17.08;;;;;;;3.31;82.67;98040.66;10362066;28;20075;-55
2023/03/17 01:52:00;;;;;;;9.02;5.82;;;;;;;3.37;82.88;98045.09;10360863;28;20482;-55
2023/03/17 01:57:09;;;;;;;13.82;9.07;;;;;;;3.31;83.66;98047.47;10362579;28;20154;-55
2023/03/17 02:02:13;;;;;;;11.05;6.75;;;;;;;3.39;83.35;98043.47;10362407;28;20509;-55
2023/03/17 02:07:13;;;;;;;8.57;5.20;;;;;;;3.52;82.87;98043.03;10363437;28;20057;-53
2023/03/17 02:12:14;;;;;;;34.38;27.95;;;;;;;3.52;83.31;98053.28;10362100;28;20107;-53
2023/03/17 02:17:13;;;;;;;15.25;13.10;;;;;;;3.55;83.43;98052.53;10362900;28;20052;-53
2023/03/17 02:22:12;;;;;;;11.70;8.52;;;;;;;3.01;83.40;97968.75;10363230;28;20526;-53
2023/03/17 02:27:33;;;;;;;;;;;;;;;3.58;83.55;98053.47;10362785;28;20553;-53
2023/03/17 02:32:36;;;;;;;7.20;5.13;;;;;;;3.69;83.42;98061.50;10360211;28;20013;-54
2023/03/17 02:37:35;;;;;;;9.95;6.15;;;;;;;3.79;83.11;98075.50;10360483;28;20056;-54
2023/03/17 02:42:35;;;;;;;7.47;5.13;;;;;;;3.83;82.88;98072.22;10361974;28;20044;-54
2023/03/17 02:47:35;;;;;;;7.50;4.97;;;;;;;3.65;82.22;98073.38;10365461;28;20151;-53
2023/03/17 02:52:34;;;;;;;9.48;6.18;;;;;;;3.61;82.10;98073.22;10370309;28;20131;-54
2023/03/17 02:57:33;;;;;;;5.07;3.22;;;;;;;3.18;82.18;98071.84;10369038;28;20495;-54
2023/03/17 03:02:32;;;;;;;5.38;3.42;;;;;;;2.96;83.21;98099.34;10367966;28;20056;-54
2023/03/17 03:07:31;;;;;;;5.45;3.67;;;;;;;2.67;85.00;98094.88;10368887;28;20037;-54
2023/03/17 03:12:30;;;;;;;5.75;4.03;;;;;;;2.59;85.33;98095.47;10369493;28;20567;-55
2023/03/17 03:17:29;;;;;;;6.10;4.00;;;;;;;2.64;85.61;98100.75;10368460;28;20033;-54
2023/03/17 03:22:28;;;;;;;4.97;3.17;;;;;;;1.31;85.33;97887.75;10369201;28;20032;-54
2023/03/17 03:27:27;;;;;;;6.72;3.90;;;;;;;2.54;85.94;98103.81;10367930;28;20410;-55
2023/03/17 03:32:26;;;;;;;6.88;4.72;;;;;;;2.51;85.95;98102.03;10367997;28;20053;-55
2023/03/17 03:37:25;;;;;;;;;;;;;;;2.31;86.77;98110.66;10368611;28;20147;-54
2023/03/17 03:42:24;;;;;;;6.50;3.73;;;;;;;2.16;87.32;98116.06;10368379;28;19948;-55
2023/03/17 03:47:23;;;;;;;9.27;5.50;;;;;;;2.10;88.20;98121.84;10367416;28;20028;-54
2023/03/17 03:52:22;;;;;;;9.50;6.35;;;;;;;1.96;87.90;98071.81;10367258;28;20029;-54
2023/03/17 03:57:21;;;;;;;8.90;5.68;;;;;;;2.49;86.99;98115.56;10366503;28;20025;-54
2023/03/17 04:02:20;;;;;;;11.95;7.38;;;;;;;2.63;86.15;98123.75;10366781;28;20048;-55
2023/03/17 04:07:20;;;;;;;22.50;11.40;;;;;;;2.77;85.57;98126.00;10367549;28;20033;-54
2023/03/17 04:12:19;;;;;;;10.38;5.95;;;;;;;2.96;84.85;98142.03;10367023;28;20546;-54
2023/03/17 04:17:18;;;;;;;9.45;6.05;;;;;;;3.13;83.99;98129.81;10366345;28;20041;-55
2023/03/17 04:22:17;;;;;;;9.20;5.88;;;;;;;2.99;83.93;98099.44;10366186;28;20134;-55
2023/03/17 04:27:16;;;;;;;9.02;4.72;;;;;;;3.36;83.91;98140.84;10365692;28;20124;-54
2023/03/17 04:32:15;;;;;;;6.65;4.72;;;;;;;3.12;82.96;98103.28;10364271;28;20052;-55
2023/03/17 04:37:14;;;;;;;7.13;4.80;;;;;;;3.41;82.97;98150.44;10364863;28;20069;-55
2023/03/17 04:42:13;;;;;;;8.57;5.30;;;;;;;3.48;82.10;98153.22;10364214;28;20068;-55
2023/03/17 04:47:12;;;;;;;7.95;5.30;;;;;;;3.55;81.59;98157.72;10363901;28;20047;-55
2023/03/17 04:52:11;;;;;;;8.13;5.05;;;;;;;3.54;81.16;98161.09;10364357;28;20114;-55
2023/03/17 04:57:11;;;;;;;8.88;5.43;;;;;;;3.44;80.88;98135.13;10364552;28;20922;-55
2023/03/17 05:02:10;;;;;;;11.32;6.18;;;;;;;3.39;80.81;98128.13;10363679;28;20068;-55
2023/03/17 05:07:10;;;;;;;10.05;6.65;;;;;;;3.69;79.89;98176.16;10403427;28;20127;-55
2023/03/17 05:12:10;;;;;;;16.90;10.13;;;;;;;3.77;80.13;98184.94;10405188;28;20088;-55
2023/03/17 05:17:09;;;;;;;17.58;10.15;;;;;;;3.79;80.02;98189.31;10405433;28;20469;-55
2023/03/17 05:22:08;;;;;;;18.17;13.70;;;;;;;3.79;80.44;98196.16;10405002;28;20681;-55
2023/03/17 05:27:07;;;;;;;23.10;15.75;;;;;;;3.70;80.16;98214.66;10405560;28;20080;-54
2023/03/17 05:32:06;;;;;;;24.92;15.05;;;;;;;3.72;80.43;98213.03;10375696;28;20064;-54
2023/03/17 05:37:06;;;;;;;14.95;8.40;;;;;;;3.84;80.63;98216.00;10405095;28;20528;-55
2023/03/17 05:42:05;;;;;;;16.25;9.57;;;;;;;3.93;79.99;98214.56;10403465;28;20498;-55
2023/03/17 05:47:06;;;;;;;9.88;7.18;;;;;;;3.92;79.35;98220.53;10399828;28;20115;-55
2023/03/17 05:52:05;;;;;;;12.48;8.77;;;;;;;4.00;79.51;98230.22;10404543;28;20067;-55
2023/03/17 05:57:04;;;;;;;14.98;11.20;;;;;;;3.94;78.96;98236.84;10405248;28;20068;-54
2023/03/17 06:02:03;;;;;;;;;;;;;;;4.00;78.88;98244.75;10405139;28;20068;-58
2023/03/17 06:07:03;;;;;;;7.72;5.07;;;;;;;4.09;78.67;98245.06;10404980;28;19978;-54
2023/03/17 06:12:03;;;;;;;12.15;7.65;;;;;;;4.08;78.46;98256.16;10404733;28;20075;-54
2023/03/17 06:17:02;;;;;;;10.38;6.07;;;;;;;3.82;78.09;98206.50;10404743;28;20116;-55
2023/03/17 06:22:01;;;;;;;11.00;6.63;;;;;;;4.34;78.08;98266.38;10406869;28;20084;-55
2023/03/17 06:27:00;;;;;;;24.95;13.90;;;;;;;4.38;78.06;98238.25;10410989;28;20056;-55
2023/03/17 06:31:59;;;;;;;22.08;14.32;;;;;;;4.72;78.20;98271.03;10409848;28;20711;-55
2023/03/17 06:36:58;;;;;;;23.75;15.68;;;;;;;5.00;77.93;98271.88;10406547;28;20112;-54
2023/03/17 06:41:57;;;;;;;21.27;14.85;;;;;;;4.96;77.27;98280.31;10407314;28;20047;-54
2023/03/17 06:46:56;;;;;;;21.25;15.57;;;;;;;5.09;76.77;98274.72;10408732;28;20111;-55
2023/03/17 06:51:55;;;;;;;25.25;13.80;;;;;;;5.28;74.71;98270.09;10411378;28;20060;-55
2023/03/17 06:56:54;;;;;;;25.55;17.60;;;;;;;5.53;73.23;98269.97;10411383;28;20159;-54
2023/03/17 07:01:53;;;;;;;25.23;17.38;;;;;;;5.60;74.40;98277.81;10409959;28;20482;-54
2023/03/17 07:06:52;;;;;;;27.35;17.25;;;;;;;5.53;73.56;98258.75;10408972;28;20116;-54
2023/03/17 07:11:52;;;;;;;21.20;16.05;;;;;;;5.79;73.39;98282.66;10409414;28;20068;-58
2023/03/17 07:16:51;;;;;;;21.40;15.15;;;;;;;5.87;72.81;98290.56;10409313;28;20557;-55
2023/03/17 07:21:50;;;;;;;17.73;12.48;;;;;;;5.75;69.39;98270.53;10410053;28;20108;-54
2023/03/17 07:26:51;;;;;;;14.95;11.05;;;;;;;5.54;69.64;98276.84;10410921;28;20040;-55
2023/03/17 07:31:50;;;;;;;7.50;5.40;;;;;;;5.15;69.36;98280.88;10409549;28;20080;-54
2023/03/17 07:36:48;;;;;;;8.75;4.18;;;;;;;5.30;70.00;98305.34;10408499;28;20089;-55
2023/03/17 07:41:51;;;;;;;7.45;5.20;;;;;;;5.34;70.06;98307.19;10409602;28;20032;-54
2023/03/17 07:46:50;;;;;;;5.35;3.50;;;;;;;5.43;70.73;98308.25;10409703;28;20064;-54
2023/03/17 07:51:49;;;;;;;;;;;;;;;5.38;70.19;98315.84;10409137;28;20075;-54
2023/03/17 07:56:48;;;;;;;4.88;3.67;;;;;;;5.59;69.64;98302.72;10408614;28;19943;-54
2023/03/17 08:01:47;;;;;;;5.53;3.80;;;;;;;5.79;69.56;98313.56;10406467;28;20104;-55
2023/03/17 08:06:46;;;;;;;;;;;;;;;6.05;69.59;98315.94;10409287;28;20060;-54
2023/03/17 08:11:45;;;;;;;5.90;4.10;;;;;;;6.39;69.77;98309.91;10408715;28;19913;-54
2023/03/17 08:16:44;;;;;;;;;;;;;;;6.68;67.65;98304.56;10408371;28;20119;-54
2023/03/17 08:21:43;;;;;;;6.75;4.63;;;;;;;6.83;66.12;98302.38;10408211;28;20004;-54
2023/03/17 08:26:42;;;;;;;8.27;5.15;;;;;;;6.92;63.53;98305.16;10407768;28;20134;-54
2023/03/17 08:31:41;;;;;;;7.97;5.95;;;;;;;7.08;63.27;98303.78;10406478;28;20127;-54
2023/03/17 08:36:40;;;;;;;12.27;7.32;;;;;;;7.29;61.45;98299.88;10403299;28;20063;-54
2023/03/17 08:41:39;;;;;;;18.75;9.30;;;;;;;6.38;61.85;98125.19;10402003;28;20120;-54
2023/03/17 08:46:39;;;;;;;10.40;7.13;;;;;;;7.35;61.11;98300.03;10401649;28;20035;-54
2023/03/17 08:51:38;;;;;;;11.15;8.50;;;;;;;7.49;60.39;98296.03;10401586;28;20115;-55
2023/03/17 08:56:39;;;;;;;;;;;;;;;7.40;59.42;98299.31;10402126;28;20469;-54
2023/03/17 09:01:38;;;;;;;;;;;;;;;7.38;59.11;98303.56;10401517;28;19991;-54
2023/03/17 09:06:37;;;;;;;6.25;3.38;;;;;;;7.05;56.52;98259.81;10400776;28;20369;-55
2023/03/17 09:11:36;;;;;;;6.78;3.85;;;;;;;7.33;57.56;98302.56;10399227;28;20509;-55
2023/03/17 09:16:35;;;;;;;8.30;4.63;;;;;;;7.79;57.63;98300.94;10401196;28;20482;-54
2023/03/17 09:21:35;;;;;;;7.18;4.18;;;;;;;7.68;57.12;98301.56;10400257;28;20123;-54
2023/03/17 09:26:34;;;;;;;;;;;;;;;7.70;56.55;98307.66;10401849;28;20131;-54
2023/03/17 09:31:34;;;;;;;8.30;4.90;;;;;;;7.57;57.46;98263.50;10400672;28;19926;-54
2023/03/17 09:36:33;;;;;;;5.50;3.33;;;;;;;7.71;56.75;98296.47;10399579;28;20032;-54
2023/03/17 09:41:55;;;;;;;5.82;3.50;;;;;;;7.97;55.72;98307.31;10398000;28;20098;-54
2023/03/17 09:47:05;;;;;;;6.97;4.78;;;;;;;8.00;55.93;98308.22;10400799;28;20499;-54
2023/03/17 09:52:07;;;;;;;7.20;5.13;;;;;;;7.72;54.35;98300.81;10399115;28;20123;-55
2023/03/17 09:57:15;;;;;;;4.45;2.80;;;;;;;7.65;53.49;98303.25;10403399;28;20477;-54
2023/03/17 10:02:32;;;;;;;7.72;3.72;;;;;;;7.84;54.86;98299.31;10408339;28;20131;-55
2023/03/17 10:07:43;;;;;;;3.78;2.90;;;;;;;7.21;52.42;98156.06;10408053;28;20143;-55
2023/03/17 10:13:18;;;;;;;5.80;3.45;;;;;;;8.60;52.79;98295.41;10406097;28;20123;-55
2023/03/17 10:18:23;;;;;;;5.25;3.72;;;;;;;9.12;52.45;98301.34;10408306;28;20119;-55
2023/03/17 10:23:30;;;;;;;7.82;5.03;;;;;;;8.73;49.44;98297.34;10407823;28;20107;-55
2023/03/17 10:28:33;;;;;;;5.78;3.42;;;;;;;8.76;49.05;98294.78;10407342;28;20127;-55
2023/03/17 10:33:32;;;;;;;5.95;3.45;;;;;;;8.28;50.58;98285.44;10405488;28;20258;-55
2023/03/17 10:38:32;;;;;;;3.33;2.45;;;;;;;8.51;50.29;98260.81;10407635;28;20115;-55
2023/03/17 10:43:53;;;;;;;12.85;6.57;;;;;;;8.76;50.06;98287.03;10406873;28;20882;-55
2023/03/17 10:48:55;;;;;;;6.22;3.08;;;;;;;9.24;49.11;98280.78;10405603;28;20111;-55
2023/03/17 10:53:58;;;;;;;6.32;4.10;;;;;;;9.38;48.42;98290.50;10407703;28;20118;-55
2023/03/17 10:59:33;;;;;;;3.75;2.75;;;;;;;9.31;48.93;98277.47;10406249;28;20055;-55
2023/03/17 11:04:41;;;;;;;3.97;2.95;;;;;;;9.24;47.01;98228.13;10350253;28;20377;-55
2023/03/17 11:09:40;;;;;;;5.80;3.88;;;;;;;9.15;48.18;98270.31;10403380;28;20462;-56
2023/03/17 11:14:42;;;;;;;6.25;3.78;;;;;;;9.22;48.21;98271.28;10407101;28;20147;-55
2023/03/17 11:20:12;;;;;;;4.53;3.35;;;;;;;9.69;49.31;98261.47;10407007;28;20067;-56
2023/03/17 11:25:22;;;;;;;7.97;5.67;;;;;;;9.61;48.84;98252.78;10406440;28;20067;-55
2023/03/17 11:30:27;;;;;;;5.75;3.85;;;;;;;9.50;48.50;98246.59;10404404;28;20103;-55
2023/03/17 11:35:45;;;;;;;6.75;4.13;;;;;;;9.68;47.50;98233.84;10405722;28;20511;-55
2023/03/17 11:41:09;;;;;;;14.68;7.75;;;;;;;10.09;47.99;98237.66;10402388;28;20147;-55
2023/03/17 11:46:14;;;;;;;3.72;2.55;;;;;;;9.90;46.44;98200.34;10405434;28;20067;-56
2023/03/17 11:51:38;;;;;;;5.22;3.10;;;;;;;10.20;47.54;98226.53;10405794;28;20464;-55
2023/03/17 11:56:41;;;;;;;9.57;4.55;;;;;;;10.37;47.66;98229.25;10405222;28;20115;-55
2023/03/17 12:01:57;;;;;;;7.72;4.68;;;;;;;10.38;47.14;98205.06;10404044;28;20076;-56
2023/03/17 12:07:06;;;;;;;4.93;3.03;;;;;;;10.91;46.35;98223.56;10404910;28;20060;-56
2023/03/17 12:12:06;;;;;;;5.97;4.13;;;;;;;10.99;46.42;98219.28;10401831;28;20115;-55
2023/03/17 12:17:30;;;;;;;4.13;3.40;;;;;;;10.91;45.72;98223.56;10403830;28;20060;-54
2023/03/17 12:22:38;;;;;;;7.88;5.20;;;;;;;10.73;45.93;98219.09;10403260;28;20056;-55
2023/03/17 12:27:58;;;;;;;5.50;3.20;;;;;;;9.75;46.38;98221.81;10403611;28;20083;-55
2023/03/17 12:33:05;;;;;;;7.88;3.50;;;;;;;9.51;47.02;98217.22;10402637;28;20123;-55
2023/03/17 12:38:14;;;;;;;5.85;3.33;;;;;;;9.07;48.28;98227.94;10403059;28;20119;-55
2023/03/17 12:43:25;;;;;;;5.57;3.90;;;;;;;8.77;49.78;98226.69;10403130;28;20068;-56
2023/03/17 12:48:36;;;;;;;8.02;5.47;;;;;;;8.62;50.13;98221.28;10402222;28;20119;-56
2023/03/17 12:53:41;;;;;;;8.38;4.53;;;;;;;8.85;49.11;98219.88;10402163;28;20466;-55
2023/03/17 12:58:47;;;;;;;7.45;4.90;;;;;;;9.20;49.02;98213.41;10402320;28;20072;-54
2023/03/17 13:04:03;;;;;;;8.60;4.80;;;;;;;9.15;47.92;98223.72;10401705;28;20067;-55
2023/03/17 13:09:31;;;;;;;8.30;5.10;;;;;;;8.77;48.29;98231.00;10401853;28;20541;-55
2023/03/17 13:14:43;;;;;;;9.82;6.00;;;;;;;8.49;49.15;98223.69;10396458;28;20148;-55
2023/03/17 13:20:06;;;;;;;8.00;4.95;;;;;;;8.43;48.82;98225.31;10385354;28;20115;-55
2023/03/17 13:25:31;;;;;;;8.75;5.25;;;;;;;8.37;48.81;98231.28;10396956;28;20139;-55
2023/03/17 13:30:33;;;;;;;9.05;6.18;;;;;;;8.30;48.77;98222.56;10398726;28;20540;-55
2023/03/17 13:35:46;;;;;;;6.97;4.93;;;;;;;8.19;48.45;98231.84;10401564;28;20155;-55
2023/03/17 13:40:51;;;;;;;9.07;6.32;;;;;;;8.13;49.54;98224.00;10401420;28;20087;-55
2023/03/17 13:45:50;;;;;;;10.10;6.28;;;;;;;8.09;49.40;98224.81;10400561;28;20068;-55
2023/03/17 13:51:17;;;;;;;11.23;5.85;;;;;;;8.15;49.52;98217.13;10401224;28;20555;-55
2023/03/17 13:56:45;;;;;;;11.40;7.85;;;;;;;8.23;49.04;98223.31;10398840;28;20109;-55
2023/03/17 14:01:47;;;;;;;9.93;6.60;;;;;;;8.19;49.42;98220.66;10398926;28;20498;-55
2023/03/17 14:06:49;;;;;;;14.73;10.38;;;;;;;7.84;48.39;98223.50;10400977;28;20107;-55
2023/03/17 14:11:49;;;;;;;10.77;7.75;;;;;;;7.84;49.07;98218.34;10400993;28;20513;-55
2023/03/17 14:17:13;;;;;;;17.48;12.60;;;;;;;7.84;49.69;98226.09;10398763;28;20131;-54
2023/03/17 14:22:20;;;;;;;10.55;7.13;;;;;;;7.99;49.12;98215.13;10400636;28;20111;-54
2023/03/17 14:27:21;;;;;;;10.95;7.72;;;;;;;8.05;49.65;98226.44;10399730;28;20595;-55
2023/03/17 14:32:23;;;;;;;8.85;6.30;;;;;;;7.98;49.23;98216.84;10400103;28;20075;-55
2023/03/17 14:37:23;;;;;;;11.52;7.88;;;;;;;7.87;49.29;98201.19;10399873;28;20071;-56
2023/03/17 14:42:28;;;;;;;15.10;9.23;;;;;;;7.79;49.31;98220.84;10401283;28;20139;-56
2023/03/17 14:47:30;;;;;;;11.88;8.65;;;;;;;7.87;49.62;98218.38;10408117;28;20119;-54
2023/03/17 14:52:31;;;;;;;11.60;8.13;;;;;;;7.97;48.93;98211.69;10407071;28;20111;-54
2023/03/17 14:57:31;;;;;;;10.45;6.90;;;;;;;8.09;49.04;98204.97;10407975;28;20124;-56
2023/03/17 15:02:36;;;;;;;8.48;5.28;;;;;;;7.97;48.96;98207.38;10407493;28;20111;-55
2023/03/17 15:07:40;;;;;;;9.48;5.45;;;;;;;8.19;48.91;98212.88;10407416;28;20072;-54
2023/03/17 15:12:40;;;;;;;9.80;6.85;;;;;;;8.22;48.11;98192.25;10406782;28;20493;-55
2023/03/17 15:17:39;;;;;;;12.77;9.00;;;;;;;8.13;48.66;98205.03;10405684;28;20115;-58
2023/03/17 15:22:41;;;;;;;15.30;8.10;;;;;;;7.96;49.29;98228.88;10405901;28;20086;-56
2023/03/17 15:27:40;;;;;;;15.50;11.00;;;;;;;7.85;49.59;98227.84;10406438;28;20079;-54
2023/03/17 15:32:39;;;;;;;12.48;8.23;;;;;;;7.77;49.94;98221.66;10405815;28;20044;-55
2023/03/17 15:37:39;;;;;;;;;;;;;;;7.90;50.09;98226.22;10405880;28;20123;-54
2023/03/17 15:42:38;;;;;;;14.45;10.10;;;;;;;7.97;49.97;98240.97;10405442;28;19951;-55
2023/03/17 15:47:38;;;;;;;11.75;8.02;;;;;;;7.83;49.87;98230.41;10405453;28;20055;-55
2023/03/17 15:52:37;;;;;;;13.70;9.90;;;;;;;7.84;50.97;98231.25;10403425;28;20206;-54
2023/03/17 15:57:36;;;;;;;10.63;7.40;;;;;;;7.95;50.45;98227.16;10398669;28;20191;-55
2023/03/17 16:02:37;;;;;;;16.25;9.40;;;;;;;7.90;51.03;98221.03;10403743;28;20119;-55
2023/03/17 16:07:36;;;;;;;15.70;11.23;;;;;;;7.77;51.17;98224.25;10403507;28;20123;-54
2023/03/17 16:12:35;;;;;;;;;;;;;;;7.71;51.38;98226.72;10404471;28;20067;-54
2023/03/17 16:17:34;;;;;;;16.85;10.63;;;;;;;7.59;51.15;98230.84;10401447;28;19924;-55
2023/03/17 16:22:35;;;;;;;;;;;;;;;7.37;52.87;98233.81;10402999;28;20072;-55
2023/03/17 16:27:34;;;;;;;19.08;12.45;;;;;;;7.42;52.58;98227.91;10401862;28;20661;-55
2023/03/17 16:32:33;;;;;;;19.05;11.88;;;;;;;7.34;52.84;98216.56;10402594;28;20128;-54
2023/03/17 16:37:32;;;;;;;15.60;9.48;;;;;;;7.36;52.34;98242.41;10402390;28;20044;-54
2023/03/17 16:42:31;;;;;;;18.80;12.73;;;;;;;7.06;52.90;98232.34;10402668;28;20033;-55
2023/03/17 16:47:30;;;;;;;26.08;17.38;;;;;;;7.02;52.90;98244.28;10401967;28;20115;-55
2023/03/17 16:52:30;;;;;;;27.30;16.70;;;;;;;6.86;53.90;98237.06;10401710;28;20159;-55
2023/03/17 16:57:29;;;;;;;41.88;22.05;;;;;;;6.66;54.47;98232.34;10401154;28;20811;-56
2023/03/17 17:02:28;;;;;;;52.47;26.60;;;;;;;6.53;54.01;98245.78;10401661;28;20036;-54
2023/03/17 17:07:27;;;;;;;90.13;53.03;;;;;;;6.42;54.87;98239.50;10400553;28;20032;-54
2023/03/17 17:12:26;;;;;;;;;;;;;;;6.29;55.55;98249.53;10402113;28;20071;-54
2023/03/17 17:17:24;;;;;;;62.95;39.50;;;;;;;6.06;56.86;98253.28;10399921;28;19963;-55
2023/03/17 17:22:23;;;;;;;49.10;30.30;;;;;;;5.95;58.07;98250.41;10392571;28;20070;-55
2023/03/17 17:27:22;;;;;;;33.85;21.48;;;;;;;5.51;58.76;98217.56;10400842;28;20051;-55
2023/03/17 17:32:22;;;;;;;33.28;20.33;;;;;;;5.47;60.15;98249.19;10401921;28;20120;-55
2023/03/17 17:37:21;;;;;;;31.23;19.58;;;;;;;5.40;60.96;98267.88;10394940;28;20115;-54
2023/03/17 17:42:20;;;;;;;30.77;18.75;;;;;;;5.13;61.55;98262.81;10396954;28;20035;-54
2023/03/17 17:47:19;;;;;;;28.75;18.13;;;;;;;5.08;62.83;98284.97;10401464;28;20064;-54
2023/03/17 17:52:18;;;;;;;30.98;19.75;;;;;;;4.85;62.75;98282.56;10398899;28;20143;-54
2023/03/17 17:57:17;;;;;;;41.25;26.48;;;;;;;4.75;63.32;98284.81;10395867;28;20033;-54
2023/03/17 18:02:16;;;;;;;47.83;31.67;;;;;;;4.47;64.01;98263.38;10396197;28;20131;-53
2023/03/17 18:07:16;;;;;;;84.35;50.63;;;;;;;4.39;65.38;98287.97;10400510;28;20059;-54
2023/03/17 18:12:15;;;;;;;56.03;36.72;;;;;;;4.31;65.57;98291.97;10400226;28;20134;-54
2023/03/17 18:17:20;;;;;;;48.15;31.98;;;;;;;4.19;66.34;98288.19;10401978;28;20557;-54
2023/03/17 18:22:20;;;;;;;39.63;24.00;;;;;;;4.09;66.62;98291.28;10407547;28;20342;-55
2023/03/17 18:27:19;;;;;;;38.20;22.83;;;;;;;3.96;67.19;98289.13;10408378;28;20064;-54
2023/03/17 18:32:18;;;;;;;33.03;20.58;;;;;;;3.90;67.32;98288.94;10408105;28;20028;-54
2023/03/17 18:37:17;;;;;;;30.13;18.60;;;;;;;3.78;68.97;98277.41;10405793;28;20103;-55
2023/03/17 18:42:16;;;;;;;26.20;16.85;;;;;;;3.69;68.46;98278.81;10406005;28;20332;-55
2023/03/17 18:47:15;;;;;;;28.50;17.40;;;;;;;3.61;68.98;98276.84;10407652;28;20538;-55
2023/03/17 18:52:14;;;;;;;27.15;17.00;;;;;;;3.59;69.13;98282.75;10406418;28;20032;-55
2023/03/17 18:57:13;;;;;;;31.45;19.92;;;;;;;3.47;69.17;98282.28;10407380;28;20063;-54
2023/03/17 19:02:12;;;;;;;28.27;19.83;;;;;;;3.08;69.71;98233.91;10406251;28;20038;-57
2023/03/17 19:07:13;;;;;;;31.00;20.30;;;;;;;3.33;70.06;98287.84;10406752;28;20108;-55
2023/03/17 19:12:12;;;;;;;31.42;19.45;;;;;;;3.25;70.02;98293.50;10407002;28;20072;-54
2023/03/17 19:17:11;;;;;;;41.45;25.92;;;;;;;3.17;70.16;98293.22;10405196;28;20082;-55
2023/03/17 19:22:11;;;;;;;60.05;37.40;;;;;;;3.11;70.67;98293.84;10405665;28;20083;-55
2023/03/17 19:27:10;;;;;;;;;;;;;;;3.04;70.65;98283.31;10406160;28;20206;-55
2023/03/17 19:32:09;;;;;;;54.40;33.90;;;;;;;2.94;71.50;98285.53;10403358;28;19912;-55
2023/03/17 19:37:08;;;;;;;52.45;32.42;;;;;;;2.85;71.39;98285.19;10405128;28;20545;-54
2023/03/17 19:42:07;;;;;;;62.33;39.08;;;;;;;2.77;71.90;98292.59;10404410;28;20093;-54
2023/03/17 19:47:07;;;;;;;88.85;47.10;;;;;;;2.64;72.18;98292.06;10405708;28;20097;-55
2023/03/17 19:52:08;;;;;;;71.65;41.92;;;;;;;2.54;73.01;98288.28;10403836;28;20145;-54
2023/03/17 19:57:07;;;;;;;65.80;37.05;;;;;;;2.48;73.88;98283.75;10403373;28;20136;-55
2023/03/17 20:02:06;;;;;;;91.20;49.50;;;;;;;2.22;73.78;98253.69;10404602;28;20119;-54
2023/03/17 20:07:06;;;;;;;97.10;54.83;;;;;;;2.12;74.38;98249.91;10405076;28;20146;-54
2023/03/17 20:12:05;;;;;;;94.03;54.30;;;;;;;2.28;74.37;98274.44;10402647;28;20083;-54
2023/03/17 20:17:04;;;;;;;;;;;;;;;2.22;75.33;98274.19;10404336;28;20504;-55
2023/03/17 20:22:03;;;;;;;49.55;28.67;;;;;;;1.98;76.53;98266.38;10400879;28;20464;-54
2023/03/17 20:27:02;;;;;;;;;;;;;;;1.87;77.50;98274.47;10403546;28;20559;-55
2023/03/17 20:32:03;;;;;;;30.35;18.50;;;;;;;1.82;77.03;98267.44;10402712;28;20225;-55
2023/03/17 20:37:03;;;;;;;56.22;31.70;;;;;;;1.86;77.24;98275.31;10402438;28;20190;-55
2023/03/17 20:42:08;;;;;;;48.28;29.05;;;;;;;1.69;77.54;98279.72;10401981;28;20063;-54
2023/03/17 20:47:07;;;;;;;30.33;20.17;;;;;;;1.44;78.15;98271.81;10400355;28;20079;-54
2023/03/17 20:52:12;;;;;;;36.42;22.98;;;;;;;1.44;78.94;98277.78;10401809;28;20063;-54
2023/03/17 20:57:12;;;;;;;41.92;25.42;;;;;;;1.42;78.66;98281.09;10399632;28;20127;-54
2023/03/17 21:02:15;;;;;;;58.47;37.83;;;;;;;1.40;78.65;98277.59;10399484;28;20123;-54
2023/03/17 21:07:20;;;;;;;57.22;34.33;;;;;;;1.35;78.88;98273.97;10400401;28;20509;-53
2023/03/17 21:12:19;;;;;;;56.13;29.23;;;;;;;1.36;78.90;98283.38;10400096;28;20123;-53
2023/03/17 21:17:18;;;;;;;59.08;32.00;;;;;;;1.18;80.13;98271.56;10400865;28;20124;-54
2023/03/17 21:22:17;;;;;;;50.70;27.30;;;;;;;1.28;79.85;98281.34;10401252;28;20032;-54
2023/03/17 21:27:16;;;;;;;50.88;26.25;;;;;;;1.27;79.46;98274.50;10400771;28;20043;-53
2023/03/17 21:32:15;;;;;;;72.70;32.63;;;;;;;1.18;79.62;98274.09;10399670;28;20131;-54
2023/03/17 21:37:17;;;;;;;89.88;44.92;;;;;;;1.20;79.50;98280.16;10401250;28;20144;-53
2023/03/17 21:42:16;;;;;;;96.95;54.38;;;;;;;1.16;79.50;98277.41;10400049;28;20115;-54
2023/03/17 21:47:15;;;;;;;112.63;64.93;;;;;;;0.88;79.46;98233.59;10400750;28;20025;-55
2023/03/17 21:52:14;;;;;;;119.22;72.93;;;;;;;1.08;79.72;98279.59;10399560;28;20548;-55
2023/03/17 21:57:13;;;;;;;99.65;60.40;;;;;;;1.02;80.01;98274.22;10400558;28;20463;-54
2023/03/17 22:02:13;;;;;;;76.43;46.47;;;;;;;0.82;80.85;98258.84;10399895;28;20538;-54
2023/03/17 22:07:12;;;;;;;64.85;40.75;;;;;;;0.79;80.91;98257.84;10400061;28;20081;-54
2023/03/17 22:12:12;;;;;;;71.53;42.50;;;;;;;0.70;81.04;98245.53;10396701;28;20488;-54
2023/03/17 22:17:11;;;;;;;60.10;37.92;;;;;;;0.82;81.36;98256.31;10399092;28;20116;-54
2023/03/17 22:22:10;;;;;;;66.13;38.85;;;;;;;0.81;80.92;98249.47;10399898;28;20108;-54
2023/03/17 22:27:09;;;;;;;63.58;38.40;;;;;;;0.37;81.25;98187.00;10399866;28;20112;-54
2023/03/17 22:32:08;;;;;;;65.45;38.05;;;;;;;0.78;80.96;98248.44;10399873;28;20041;-54
2023/03/17 22:37:07;;;;;;;63.92;37.40;;;;;;;0.78;80.61;98241.66;10399834;28;20463;-54
2023/03/17 22:42:06;;;;;;;76.63;42.10;;;;;;;0.64;81.99;98242.72;10399587;28;20485;-54
2023/03/17 22:47:05;;;;;;;78.03;42.97;;;;;;;0.53;81.90;98233.69;10398318;28;20690;-55
2023/03/17 22:52:04;;;;;;;;;;;;;;;0.51;82.03;98230.19;10399554;28;20108;-54
2023/03/17 22:57:03;;;;;;;67.50;38.37;;;;;;;0.46;82.59;98225.72;10399596;28;20011;-54
2023/03/17 23:02:02;;;;;;;82.82;43.47;;;;;;;0.47;82.22;98224.94;10399265;28;20063;-54
2023/03/17 23:07:02;;;;;;;66.35;38.88;;;;;;;0.44;81.94;98231.56;10404756;28;20033;-54
2023/03/17 23:12:01;;;;;;;71.28;39.15;;;;;;;0.44;82.02;98240.09;10404584;28;20127;-55
2023/03/17 23:17:00;;;;;;;;;;;;;;;0.48;81.82;98236.91;10404040;28;20431;-54
2023/03/17 23:21:59;;;;;;;53.78;29.40;;;;;;;0.41;82.08;98234.88;10402262;28;20309;-54
2023/03/17 23:26:58;;;;;;;50.63;30.35;;;;;;;0.43;82.14;98240.91;10402400;28;20430;-55
2023/03/17 23:31:57;;;;;;;78.90;41.85;;;;;;;0.29;82.33;98210.44;10402963;28;20338;-55